Time;durP1;ratioP1;P1;durP2;ratioP2;P2;SDS_P1;SDS_P2;PMS_P1;PMS_P2;Temp;Humidity;BMP_temperature;BMP_pressure;BME280_temperature;BME280_humidity;BME280_pressure;Samples;Min_cycle;Max_cycle;Signal;HPM_P1;HPM_P2
2022/06/18 00:00:22;;;;;;;2.40;2.20;;;23.50;36.80;;;;;;20520;6848;309095;-88
2022/06/18 00:02:48;;;;;;;2.10;2.00;;;23.80;36.40;;;;;;20521;6848;278594;-87
2022/06/18 00:05:13;;;;;;;2.10;2.00;;;23.90;36.10;;;;;;20514;6848;308158;-88
2022/06/18 00:07:39;;;;;;;2.45;2.20;;;24.00;35.70;;;;;;20734;6848;117634;-88
2022/06/18 00:10:06;;;;;;;2.40;2.20;;;23.80;36.10;;;;;;20517;6848;311678;-87
2022/06/18 00:15:19;;;;;;;2.43;2.30;;;23.60;36.30;;;;;;20516;6848;307241;-87
2022/06/18 00:17:45;;;;;;;3.08;2.30;;;23.80;36.10;;;;;;20499;6848;308407;-87
2022/06/18 00:20:11;;;;;;;2.33;2.20;;;23.80;36.30;;;;;;20738;6848;117737;-88
2022/06/18 00:22:37;;;;;;;2.28;2.17;;;23.20;36.20;;;;;;20741;6848;117303;-88
2022/06/18 00:25:03;;;;;;;3.10;2.30;;;23.20;36.70;;;;;;20716;6848;117820;-88
2022/06/18 00:27:28;;;;;;;2.37;2.28;;;22.90;37.10;;;;;;20505;6848;338155;-88
2022/06/18 00:29:54;;;;;;;2.40;2.20;;;23.00;36.90;;;;;;20743;6849;117375;-88
2022/06/18 00:32:19;;;;;;;2.73;2.60;;;23.00;37.00;;;;;;20512;6849;278584;-88
2022/06/18 00:34:47;;;;;;;3.83;2.53;;;23.00;38.00;;;;;;20743;6849;117311;-88
2022/06/18 00:37:14;;;;;;;2.30;2.10;;;23.00;37.30;;;;;;20497;6849;295091;-87
2022/06/18 00:39:41;;;;;;;3.23;2.27;;;23.10;38.70;;;;;;20724;6849;117666;-88
2022/06/18 00:42:06;;;;;;;2.65;2.42;;;23.00;38.60;;;;;;20515;6849;311649;-88
2022/06/18 00:44:32;;;;;;;3.62;3.42;;;23.10;40.50;;;;;;20473;6849;313144;-87
2022/06/18 00:47:07;;;;;;;4.67;4.37;;;23.30;39.50;;;;;;20709;6853;117482;-88
2022/06/18 00:50:05;;;;;;;5.40;5.00;;;23.00;39.30;;;;;;20486;6861;339756;-88
2022/06/18 00:52:41;;;;;;;5.00;4.70;;;23.10;39.60;;;;;;19441;7213;289755;-87
2022/06/18 00:55:10;;;;;;;5.70;5.30;;;23.30;38.70;;;;;;20123;6865;282525;-87
2022/06/18 00:57:42;;;;;;;4.87;4.57;;;23.30;38.70;;;;;;20474;6858;308573;-87
2022/06/18 01:00:14;;;;;;;5.05;4.65;;;23.40;39.00;;;;;;20262;6858;340320;-88
2022/06/18 01:02:41;;;;;;;4.23;3.80;;;23.10;39.40;;;;;;20706;6852;121381;-88
2022/06/18 01:05:20;;;;;;;4.17;3.87;;;23.10;39.40;;;;;;20486;6850;281225;-88
2022/06/18 01:07:45;;;;;;;3.00;2.80;;;23.00;39.50;;;;;;20719;6851;117599;-88
2022/06/18 01:10:11;;;;;;;3.00;2.70;;;22.40;40.60;;;;;;20721;6851;117459;-87
2022/06/18 01:12:37;;;;;;;2.97;2.78;;;22.40;40.60;;;;;;20496;6851;337875;-88
2022/06/18 01:15:03;;;;;;;2.62;2.53;;;22.50;41.10;;;;;;20720;6852;119690;-88
2022/06/18 01:17:28;;;;;;;2.90;2.70;;;22.40;40.90;;;;;;20509;6850;280295;-87
2022/06/18 01:19:56;;;;;;;3.00;2.80;;;22.80;40.80;;;;;;20520;6850;335710;-87
2022/06/18 01:22:34;;;;;;;3.67;2.75;;;22.80;40.80;;;;;;20525;6850;307032;-87
2022/06/18 01:25:05;;;;;;;3.20;3.00;;;22.90;40.10;;;;;;20477;6850;317589;-88
2022/06/18 01:27:27;;;;;;;2.60;2.50;;;23.10;40.00;;;;;;20723;6850;117541;-88
2022/06/18 01:29:53;;;;;;;2.97;2.77;;;22.80;40.10;;;;;;20722;6850;117951;-88
2022/06/18 01:32:18;;;;;;;3.00;2.80;;;22.50;40.60;;;;;;20511;6846;308909;-87
2022/06/18 01:34:45;;;;;;;2.87;2.77;;;22.60;40.80;;;;;;20746;6846;117179;-88
2022/06/18 01:37:11;;;;;;;2.90;2.70;;;22.40;40.70;;;;;;20476;6846;279620;-87
2022/06/18 01:39:36;;;;;;;2.60;2.50;;;22.60;40.60;;;;;;20520;6846;308210;-87
2022/06/18 01:45:27;;;;;;;4.07;2.50;;;23.00;39.90;;;;;;20685;6846;117680;-87
2022/06/18 01:47:55;;;;;;;3.60;2.80;;;22.60;40.20;;;;;;20725;6846;118685;-88
2022/06/18 01:50:34;;;;;;;3.87;2.80;;;22.40;40.80;;;;;;20736;6846;120783;-87
2022/06/18 01:53:16;;;;;;;2.60;2.50;;;22.10;41.10;;;;;;20717;6846;117389;-87
2022/06/18 01:55:44;;;;;;;3.00;2.80;;;21.90;41.50;;;;;;20744;6846;118349;-88
2022/06/18 01:58:13;;;;;;;3.03;2.90;;;21.70;41.80;;;;;;20517;6846;308426;-87
2022/06/18 02:00:39;;;;;;;3.03;2.73;;;22.00;41.60;;;;;;20732;6846;117923;-88
2022/06/18 02:03:04;;;;;;;2.90;2.77;;;22.00;41.60;;;;;;20730;6846;120905;-88
2022/06/18 02:05:30;;;;;;;3.30;3.00;;;21.80;41.80;;;;;;20535;6846;285050;-87
2022/06/18 02:07:55;;;;;;;2.85;2.62;;;22.00;41.80;;;;;;20744;6846;119307;-87
2022/06/18 02:10:21;;;;;;;2.80;2.53;;;21.90;41.70;;;;;;20748;6846;117976;-87
2022/06/18 02:12:46;;;;;;;2.87;2.67;;;21.80;42.10;;;;;;20734;6846;118568;-88
2022/06/18 02:15:12;;;;;;;2.80;2.60;;;21.50;42.30;;;;;;20725;6844;118707;-88
2022/06/18 02:17:38;;;;;;;2.97;2.78;;;21.40;42.70;;;;;;20722;6845;120557;-88
2022/06/18 02:20:20;;;;;;;3.77;2.87;;;21.20;43.00;;;;;;20737;6846;118261;-87
2022/06/18 02:22:45;;;;;;;2.60;2.50;;;21.10;43.30;;;;;;20737;6846;117662;-87
2022/06/18 02:25:11;;;;;;;2.77;2.67;;;21.00;43.30;;;;;;20509;6846;308060;-88
2022/06/18 02:27:36;;;;;;;2.90;2.70;;;21.30;43.10;;;;;;20535;6846;281103;-88
2022/06/18 02:30:03;;;;;;;2.90;2.70;;;22.00;41.90;;;;;;20514;6846;309541;-87
2022/06/18 02:32:35;;;;;;;2.93;2.73;;;22.00;41.90;;;;;;20736;6846;124274;-87
2022/06/18 02:35:00;;;;;;;2.97;2.70;;;21.90;42.00;;;;;;20487;6846;308566;-87
2022/06/18 02:37:26;;;;;;;2.65;2.45;;;21.90;41.80;;;;;;20735;6846;120694;-87
2022/06/18 02:39:54;;;;;;;2.70;2.50;;;21.80;42.10;;;;;;20737;6846;117240;-87
2022/06/18 02:42:20;;;;;;;2.53;2.43;;;21.50;42.50;;;;;;20726;6846;117272;-88
2022/06/18 02:44:45;;;;;;;2.70;2.60;;;21.30;42.60;;;;;;20736;6846;118626;-87
2022/06/18 02:47:11;;;;;;;2.43;2.33;;;21.10;42.80;;;;;;20498;6846;278950;-87
2022/06/18 02:49:36;;;;;;;2.80;2.60;;;21.30;41.70;;;;;;20525;6846;338538;-87
2022/06/18 02:52:02;;;;;;;2.57;2.47;;;21.70;41.10;;;;;;20504;6846;301015;-87
2022/06/18 02:54:28;;;;;;;2.37;2.27;;;22.00;40.70;;;;;;20740;6846;117366;-87
2022/06/18 02:56:54;;;;;;;2.60;2.50;;;21.60;41.20;;;;;;20747;6846;117255;-87
2022/06/18 02:59:20;;;;;;;2.70;2.50;;;21.50;41.10;;;;;;20718;6846;123239;-88
2022/06/18 03:01:45;;;;;;;3.07;2.70;;;21.30;41.50;;;;;;20528;6846;334081;-87
2022/06/18 03:04:11;;;;;;;2.60;2.40;;;21.40;41.60;;;;;;20735;6846;117242;-87
2022/06/18 03:06:36;;;;;;;2.65;2.45;;;21.40;41.60;;;;;;20731;6846;117562;-87
2022/06/18 03:09:02;;;;;;;2.70;2.60;;;21.20;42.00;;;;;;20511;6846;309042;-87
2022/06/18 03:14:14;;;;;;;2.50;2.40;;;21.30;41.80;;;;;;20739;6846;120450;-88
2022/06/18 03:16:40;;;;;;;3.53;3.20;;;21.10;42.10;;;;;;20730;6846;117772;-88
2022/06/18 03:19:05;;;;;;;2.60;2.50;;;20.90;42.50;;;;;;20723;6846;117608;-87
2022/06/18 03:21:34;;;;;;;3.40;2.67;;;20.70;42.80;;;;;;20723;6846;117768;-88
2022/06/18 03:24:00;;;;;;;2.90;2.70;;;20.60;43.20;;;;;;20520;6846;301275;-87
2022/06/18 03:26:25;;;;;;;2.73;2.63;;;21.00;43.20;;;;;;20741;6844;121916;-87
2022/06/18 03:28:50;;;;;;;2.93;2.73;;;21.10;42.90;;;;;;20526;6845;308202;-87
2022/06/18 03:31:16;;;;;;;3.90;2.50;;;21.30;42.50;;;;;;20715;6846;119004;-87
2022/06/18 03:33:42;;;;;;;2.65;2.45;;;21.30;42.70;;;;;;20730;6846;117624;-87
2022/06/18 03:36:07;;;;;;;2.97;2.80;;;21.20;42.70;;;;;;20741;6846;117231;-88
2022/06/18 03:38:33;;;;;;;2.67;2.57;;;21.10;42.90;;;;;;20723;6846;117474;-88
2022/06/18 03:40:59;;;;;;;3.03;2.50;;;20.90;43.20;;;;;;20718;6846;117747;-87
2022/06/18 03:43:25;;;;;;;3.20;3.10;;;20.90;43.10;;;;;;20734;6846;117707;-87
2022/06/18 03:45:51;;;;;;;2.73;2.53;;;20.80;43.20;;;;;;20739;6846;117207;-87
2022/06/18 03:48:20;;;;;;;2.53;2.43;;;20.80;43.20;;;;;;20740;6846;117140;-87
2022/06/18 03:50:45;;;;;;;2.97;2.73;;;20.70;43.30;;;;;;20728;6846;117261;-87
2022/06/18 03:53:12;;;;;;;2.80;2.58;;;20.70;43.60;;;;;;20731;6846;127019;-87
2022/06/18 03:55:36;;;;;;;3.00;2.80;;;20.60;43.90;;;;;;20529;6846;308327;-87
2022/06/18 03:58:04;;;;;;;3.22;2.92;;;20.90;43.80;;;;;;20746;6846;117625;-87
2022/06/18 04:00:27;;;;;;;2.57;2.40;;;21.00;43.70;;;;;;20738;6846;117702;-87
2022/06/18 04:02:53;;;;;;;3.40;3.20;;;20.80;44.40;;;;;;20747;6846;117267;-88
2022/06/18 04:05:19;;;;;;;3.13;2.93;;;20.60;44.10;;;;;;20519;6846;307915;-87
2022/06/18 04:07:44;;;;;;;3.12;2.90;;;20.80;44.20;;;;;;20742;6846;118227;-87
2022/06/18 04:10:10;;;;;;;3.00;2.80;;;20.70;44.90;;;;;;20738;6846;117688;-87
2022/06/18 04:12:37;;;;;;;4.20;2.83;;;20.70;44.30;;;;;;20716;6846;118014;-87
2022/06/18 04:15:02;;;;;;;3.30;3.00;;;20.80;44.70;;;;;;20513;6846;337348;-87
2022/06/18 04:17:29;;;;;;;3.33;3.13;;;20.80;44.50;;;;;;20744;6846;117905;-87
2022/06/18 04:19:54;;;;;;;3.27;3.07;;;20.80;44.50;;;;;;20530;6846;278522;-87
2022/06/18 04:22:20;;;;;;;3.10;3.00;;;21.00;44.20;;;;;;20518;6846;330732;-87
2022/06/18 04:24:45;;;;;;;3.03;2.83;;;21.30;44.20;;;;;;20524;6846;305503;-87
2022/06/18 04:27:11;;;;;;;3.08;2.90;;;21.60;43.60;;;;;;20511;6846;340448;-87
2022/06/18 04:29:36;;;;;;;3.20;3.00;;;21.80;42.70;;;;;;20525;6846;280150;-87
2022/06/18 04:32:04;;;;;;;3.30;3.10;;;22.00;42.50;;;;;;20526;6846;307282;-88
2022/06/18 04:34:28;;;;;;;3.00;2.90;;;22.10;42.40;;;;;;20527;6846;278375;-87
2022/06/18 04:36:53;;;;;;;2.80;2.65;;;22.20;42.40;;;;;;20523;6846;336014;-87
2022/06/18 04:39:19;;;;;;;3.27;2.97;;;22.20;42.20;;;;;;20513;6844;308128;-87
2022/06/18 04:41:44;;;;;;;3.10;2.92;;;22.30;42.20;;;;;;20538;6846;279118;-88
2022/06/18 04:44:11;;;;;;;3.70;3.05;;;22.00;42.60;;;;;;20751;6846;117382;-87
2022/06/18 04:46:36;;;;;;;2.97;2.67;;;22.00;42.60;;;;;;20725;6846;117474;-87
2022/06/18 04:49:03;;;;;;;3.47;3.17;;;21.60;43.20;;;;;;20724;6846;117700;-88
2022/06/18 04:51:29;;;;;;;3.27;2.90;;;21.30;43.70;;;;;;20732;6846;117326;-88
2022/06/18 04:53:55;;;;;;;3.23;3.03;;;21.00;44.60;;;;;;20735;6846;117706;-87
2022/06/18 04:56:20;;;;;;;3.17;2.90;;;21.00;44.60;;;;;;20733;6846;118533;-87
2022/06/18 04:58:46;;;;;;;2.90;2.80;;;20.90;44.80;;;;;;20749;6846;116664;-88
2022/06/18 05:01:18;;;;;;;3.23;3.03;;;20.80;45.00;;;;;;20724;6846;118390;-87
2022/06/18 05:03:44;;;;;;;3.35;3.15;;;20.80;45.10;;;;;;20533;6846;308182;-88
2022/06/18 05:06:09;;;;;;;3.43;3.23;;;21.10;45.10;;;;;;20732;6846;118064;-87
2022/06/18 05:08:35;;;;;;;3.20;2.90;;;21.20;45.00;;;;;;20534;6846;278704;-87
2022/06/18 05:11:00;;;;;;;3.03;2.90;;;21.50;44.90;;;;;;20502;6846;337404;-87
2022/06/18 05:13:26;;;;;;;3.30;3.00;;;21.90;44.10;;;;;;20739;6846;117438;-87
2022/06/18 05:15:51;;;;;;;3.47;3.25;;;21.80;43.90;;;;;;20741;6846;116334;-87
2022/06/18 05:18:17;;;;;;;3.37;3.17;;;21.60;44.30;;;;;;20528;6846;278202;-87
2022/06/18 05:20:43;;;;;;;3.03;2.83;;;21.80;44.20;;;;;;20732;6846;117586;-88
2022/06/18 05:23:10;;;;;;;3.25;3.10;;;21.80;44.30;;;;;;20507;6846;308600;-88
2022/06/18 05:25:34;;;;;;;3.20;3.10;;;22.00;44.20;;;;;;20513;6846;301209;-88
2022/06/18 05:28:00;;;;;;;3.70;3.40;;;22.30;43.50;;;;;;20540;6846;278625;-87
2022/06/18 05:30:27;;;;;;;4.22;3.40;;;22.50;43.30;;;;;;20739;6846;117989;-87
2022/06/18 05:32:51;;;;;;;3.30;3.20;;;22.50;43.20;;;;;;20738;6846;117242;-87
2022/06/18 05:35:17;;;;;;;3.28;3.00;;;22.20;43.50;;;;;;20732;6846;117501;-87
2022/06/18 05:37:42;;;;;;;3.20;3.00;;;22.00;43.90;;;;;;20545;6846;281678;-87
2022/06/18 05:40:08;;;;;;;2.80;2.70;;;22.20;43.90;;;;;;20758;6846;117769;-88
2022/06/18 05:42:33;;;;;;;3.30;3.10;;;22.30;43.80;;;;;;20750;6846;117266;-88
2022/06/18 05:44:59;;;;;;;3.30;3.10;;;22.20;44.00;;;;;;20521;6846;308717;-88
2022/06/18 05:47:27;;;;;;;3.30;3.10;;;22.50;44.00;;;;;;20505;6846;340704;-88
2022/06/18 05:49:53;;;;;;;3.03;2.93;;;22.80;43.60;;;;;;20733;6844;119799;-88
2022/06/18 05:52:19;;;;;;;4.60;2.90;;;22.90;43.60;;;;;;20737;6845;119422;-87
2022/06/18 05:54:45;;;;;;;3.40;3.20;;;22.70;43.90;;;;;;20742;6846;117128;-88
2022/06/18 05:57:10;;;;;;;3.17;2.97;;;22.60;44.10;;;;;;20721;6846;119237;-88
2022/06/18 05:59:35;;;;;;;3.45;2.92;;;22.60;44.30;;;;;;20746;6846;117454;-88
2022/06/18 06:02:01;;;;;;;3.40;3.12;;;22.60;44.40;;;;;;20740;6846;117715;-88
2022/06/18 06:04:26;;;;;;;3.33;3.13;;;22.70;44.40;;;;;;20529;6846;309207;-88
2022/06/18 06:06:52;;;;;;;4.07;3.15;;;23.10;43.70;;;;;;20740;6846;118308;-87
2022/06/18 06:12:04;;;;;;;3.33;3.13;;;24.00;43.10;;;;;;20758;6846;117401;-89
2022/06/18 06:14:29;;;;;;;3.37;3.07;;;24.60;43.30;;;;;;20551;6846;309983;-88
2022/06/18 06:16:57;;;;;;;3.60;3.30;;;25.30;41.60;;;;;;20539;6846;279258;-89
2022/06/18 06:19:21;;;;;;;3.50;3.30;;;26.20;40.20;;;;;;20566;6846;277800;-89
2022/06/18 06:21:46;;;;;;;2.90;2.80;;;26.90;38.30;;;;;;20802;6846;116849;-88
2022/06/18 06:24:12;;;;;;;3.13;2.97;;;27.30;38.60;;;;;;20745;6846;117702;-88
2022/06/18 06:26:37;;;;;;;2.93;2.83;;;27.40;38.80;;;;;;20534;6846;307493;-88
2022/06/18 06:29:04;;;;;;;2.90;2.80;;;28.60;37.20;;;;;;20498;6846;279315;-89
2022/06/18 06:31:29;;;;;;;2.80;2.70;;;28.60;37.20;;;;;;20747;6846;122143;-88
2022/06/18 06:33:55;;;;;;;2.87;2.77;;;28.90;37.30;;;;;;20751;6846;119771;-88
2022/06/18 06:36:20;;;;;;;3.00;2.80;;;29.00;37.50;;;;;;20531;6846;289971;-88
2022/06/18 06:38:46;;;;;;;3.23;3.10;;;29.40;35.80;;;;;;20532;6846;309258;-88
2022/06/18 06:41:12;;;;;;;3.53;2.70;;;30.00;34.40;;;;;;20511;6846;307758;-88
2022/06/18 06:43:37;;;;;;;7.27;3.30;;;30.60;33.50;;;;;;20745;6846;117944;-88
2022/06/18 06:46:03;;;;;;;2.90;2.70;;;31.00;33.40;;;;;;20533;6846;278992;-88
2022/06/18 06:48:30;;;;;;;2.90;2.70;;;30.90;33.30;;;;;;20544;6846;279509;-88
2022/06/18 06:50:56;;;;;;;3.20;2.90;;;31.40;32.20;;;;;;20744;6846;118911;-88
2022/06/18 06:53:22;;;;;;;2.50;2.40;;;31.30;33.50;;;;;;20721;6846;117873;-88
2022/06/18 06:58:33;;;;;;;4.13;2.50;;;31.60;33.10;;;;;;20741;6846;117586;-88
2022/06/18 07:00:59;;;;;;;3.20;3.00;;;31.70;33.30;;;;;;20730;6846;117729;-89
2022/06/18 07:03:30;;;;;;;3.20;3.00;;;31.70;34.00;;;;;;20525;6844;338059;-88
2022/06/18 07:05:53;;;;;;;3.00;2.63;;;32.10;33.10;;;;;;20511;6846;309010;-88
2022/06/18 07:08:18;;;;;;;3.17;2.87;;;32.50;32.30;;;;;;20749;6846;117206;-88
2022/06/18 07:10:44;;;;;;;2.95;2.75;;;32.60;32.50;;;;;;20529;6846;307452;-88
2022/06/18 07:13:11;;;;;;;3.17;2.97;;;32.80;31.60;;;;;;20516;6846;278873;-88
2022/06/18 07:15:37;;;;;;;2.80;2.70;;;33.00;30.70;;;;;;20529;6846;282348;-88
2022/06/18 07:18:03;;;;;;;2.90;2.70;;;33.30;30.80;;;;;;20537;6846;338509;-88
2022/06/18 07:20:29;;;;;;;4.30;2.83;;;33.30;30.80;;;;;;20737;6846;118411;-88
2022/06/18 07:22:56;;;;;;;2.90;2.70;;;33.10;31.20;;;;;;20539;6846;307839;-85
2022/06/18 07:25:20;;;;;;;2.90;2.70;;;33.00;31.20;;;;;;20521;6846;310826;-86
2022/06/18 07:27:46;;;;;;;105.57;12.07;;;33.10;31.20;;;;;;20750;6846;118147;-86
2022/06/18 07:30:11;;;;;;;3.10;2.90;;;32.90;31.40;;;;;;20754;6846;117725;-86
2022/06/18 07:32:38;;;;;;;3.20;2.90;;;32.50;31.90;;;;;;20530;6846;308410;-86
2022/06/18 07:35:05;;;;;;;3.10;2.80;;;32.60;31.60;;;;;;20444;6846;307603;-88
2022/06/18 07:37:30;;;;;;;3.13;2.80;;;32.60;31.60;;;;;;20763;6846;67741;-89
2022/06/18 07:39:57;;;;;;;2.93;2.83;;;32.50;31.80;;;;;;20745;6846;117174;-88
2022/06/18 07:42:23;;;;;;;5.33;3.00;;;32.30;31.90;;;;;;20533;6846;308517;-88
2022/06/18 07:44:49;;;;;;;2.60;2.47;;;32.30;31.20;;;;;;20738;6846;118578;-88
2022/06/18 07:47:17;;;;;;;2.80;2.60;;;32.20;31.20;;;;;;20729;6846;178236;-88
2022/06/18 07:49:44;;;;;;;3.33;2.67;;;32.00;31.10;;;;;;20529;6846;332758;-88
2022/06/18 07:52:10;;;;;;;8.17;3.40;;;32.00;31.10;;;;;;20737;6846;117269;-87
2022/06/18 07:54:35;;;;;;;2.50;2.40;;;32.00;30.50;;;;;;20740;6846;116602;-87
2022/06/18 07:57:01;;;;;;;2.57;2.47;;;31.70;30.70;;;;;;20724;6846;118957;-87
2022/06/18 07:59:27;;;;;;;2.83;2.60;;;31.60;30.60;;;;;;20531;6846;310066;-87
2022/06/18 08:01:52;;;;;;;2.80;2.60;;;31.90;31.20;;;;;;20541;6846;308106;-86
2022/06/18 08:04:19;;;;;;;4.73;2.67;;;32.30;30.10;;;;;;20748;6846;117715;-86
2022/06/18 08:06:45;;;;;;;2.80;2.60;;;32.30;30.00;;;;;;20536;6846;307123;-87
2022/06/18 08:09:10;;;;;;;2.60;2.50;;;32.50;29.80;;;;;;20515;6846;279411;-87
2022/06/18 08:11:37;;;;;;;3.73;2.70;;;32.80;30.20;;;;;;20747;6846;118192;-88
2022/06/18 08:14:02;;;;;;;2.50;2.40;;;32.70;29.90;;;;;;20533;6844;279092;-87
2022/06/18 08:16:27;;;;;;;2.67;2.47;;;32.80;30.40;;;;;;20542;6846;308957;-87
2022/06/18 08:18:53;;;;;;;3.00;2.43;;;33.10;29.30;;;;;;20540;6846;308145;-87
2022/06/18 08:21:25;;;;;;;2.80;2.60;;;33.30;29.20;;;;;;20516;6846;312236;-87
2022/06/18 08:23:50;;;;;;;3.20;2.70;;;33.50;29.00;;;;;;20522;6846;278530;-86
2022/06/18 08:26:18;;;;;;;2.83;2.63;;;33.80;29.60;;;;;;20516;6846;309403;-87
2022/06/18 08:28:42;;;;;;;8.20;3.03;;;33.80;29.60;;;;;;20513;6846;308669;-87
2022/06/18 08:31:08;;;;;;;4.90;2.80;;;33.90;29.70;;;;;;20723;6846;122395;-87
2022/06/18 08:33:33;;;;;;;3.23;2.90;;;33.90;29.60;;;;;;20741;6846;117466;-87
2022/06/18 08:35:59;;;;;;;2.80;2.70;;;33.70;30.00;;;;;;20536;6846;300422;-87
2022/06/18 08:38:24;;;;;;;2.63;2.50;;;33.80;29.10;;;;;;20532;6846;278661;-87
2022/06/18 08:41:16;;;;;;;3.70;2.40;;;34.10;29.00;;;;;;20747;6846;118206;-87
2022/06/18 08:44:05;;;;;;;2.78;2.58;;;34.10;29.20;;;;;;20505;6846;310407;-87
2022/06/18 08:46:37;;;;;;;4.07;3.00;;;34.30;28.80;;;;;;20533;6846;307776;-87
2022/06/18 08:49:33;;;;;;;2.97;2.63;;;34.50;28.20;;;;;;20692;6846;118473;-87
2022/06/18 08:52:08;;;;;;;2.90;2.70;;;34.40;28.70;;;;;;20511;6846;310820;-87
2022/06/18 08:54:53;;;;;;;3.50;2.60;;;34.50;29.50;;;;;;20510;6846;279340;-87
2022/06/18 08:57:25;;;;;;;41.70;6.20;;;34.70;28.30;;;;;;20496;6845;308526;-88
2022/06/18 09:00:14;;;;;;;2.80;2.60;;;35.00;29.30;;;;;;20720;6845;121151;-88
2022/06/18 09:03:12;;;;;;;2.80;2.60;;;35.00;28.60;;;;;;20073;6837;307790;-88
2022/06/18 09:05:54;;;;;;;3.10;2.57;;;35.10;29.50;;;;;;20770;6837;117892;-87
2022/06/18 09:08:38;;;;;;;3.20;2.73;;;35.10;29.00;;;;;;20703;6850;118159;-87
2022/06/18 09:11:24;;;;;;;8.95;2.97;;;34.90;29.40;;;;;;19905;6837;338190;-87
2022/06/18 09:13:59;;;;;;;3.87;2.50;;;35.00;29.50;;;;;;20544;6837;307055;-88
2022/06/18 09:16:25;;;;;;;3.70;3.00;;;35.40;28.20;;;;;;20767;6837;118444;-87
2022/06/18 09:18:53;;;;;;;2.70;2.50;;;35.50;28.10;;;;;;20743;6837;117364;-88
2022/06/18 09:21:21;;;;;;;2.60;2.40;;;35.30;27.50;;;;;;20747;6837;117698;-87
2022/06/18 09:23:48;;;;;;;2.57;2.37;;;35.20;27.00;;;;;;20524;6837;279344;-88
2022/06/18 09:26:21;;;;;;;2.47;2.27;;;35.70;25.20;;;;;;20575;6835;278243;-87
2022/06/18 09:28:47;;;;;;;2.70;1.90;;;35.70;25.20;;;;;;20569;6836;278024;-88
2022/06/18 09:31:29;;;;;;;3.57;2.30;;;36.00;24.50;;;;;;20739;6837;117682;-87
2022/06/18 09:33:58;;;;;;;2.30;2.15;;;36.00;24.90;;;;;;20554;6837;319976;-87
2022/06/18 09:36:23;;;;;;;2.75;2.05;;;36.10;24.50;;;;;;20759;6837;117348;-87
2022/06/18 09:39:08;;;;;;;2.10;2.00;;;36.10;25.90;;;;;;20548;6837;279186;-88
2022/06/18 09:41:41;;;;;;;22.30;4.87;;;36.10;25.90;;;;;;20771;6837;117411;-87
2022/06/18 09:44:07;;;;;;;23.43;4.20;;;36.10;25.70;;;;;;20760;6837;117369;-88
2022/06/18 09:46:45;;;;;;;2.30;2.20;;;36.00;25.30;;;;;;20759;6837;117452;-88
2022/06/18 09:49:11;;;;;;;1.83;1.70;;;35.80;25.30;;;;;;20745;6837;117404;-88
2022/06/18 09:51:45;;;;;;;2.20;2.00;;;35.80;25.40;;;;;;20564;6837;281350;-87
2022/06/18 09:54:09;;;;;;;4.33;2.07;;;36.00;24.60;;;;;;20763;6837;117841;-88
2022/06/18 09:56:35;;;;;;;2.20;2.10;;;36.10;24.70;;;;;;20772;6837;117298;-88
2022/06/18 09:59:00;;;;;;;2.27;2.10;;;36.10;24.90;;;;;;20737;6837;118647;-88
2022/06/18 10:01:32;;;;;;;2.00;1.90;;;36.10;24.80;;;;;;20546;6837;306990;-88
2022/06/18 10:06:52;;;;;;;2.10;1.90;;;36.50;24.90;;;;;;20768;6837;117380;-88
2022/06/18 10:09:34;;;;;;;2.30;2.10;;;36.40;24.90;;;;;;20539;6837;307411;-87
2022/06/18 10:12:20;;;;;;;3.87;2.10;;;36.60;24.40;;;;;;20749;6837;117683;-87
2022/06/18 10:14:45;;;;;;;2.47;2.37;;;36.70;25.00;;;;;;20766;6837;117514;-87
2022/06/18 10:17:24;;;;;;;2.80;2.30;;;36.60;24.40;;;;;;20527;6837;295973;-87
2022/06/18 10:20:00;;;;;;;4.63;2.43;;;36.70;24.20;;;;;;20775;6837;117432;-87
2022/06/18 10:22:58;;;;;;;2.40;2.23;;;36.60;23.90;;;;;;20766;6837;121356;-87
2022/06/18 10:25:47;;;;;;;2.20;2.10;;;36.50;23.90;;;;;;20762;6837;117945;-87
2022/06/18 10:28:23;;;;;;;4.10;2.25;;;36.40;23.80;;;;;;20781;6837;121287;-87
2022/06/18 10:30:52;;;;;;;2.53;2.35;;;36.30;24.10;;;;;;20748;6837;119460;-87
2022/06/18 10:33:27;;;;;;;2.40;2.20;;;36.30;24.00;;;;;;20741;6837;120307;-87
2022/06/18 10:36:15;;;;;;;2.20;2.00;;;36.30;23.80;;;;;;20552;6835;308301;-87
2022/06/18 10:38:50;;;;;;;2.97;2.50;;;36.50;23.80;;;;;;20525;6836;307931;-88
2022/06/18 10:41:45;;;;;;;2.47;2.28;;;37.00;23.50;;;;;;20512;6837;338965;-88
2022/06/18 10:44:27;;;;;;;2.30;2.20;;;37.30;24.10;;;;;;20079;6846;119902;-88
2022/06/18 10:47:09;;;;;;;2.60;2.40;;;37.40;23.90;;;;;;20556;6837;280819;-88
2022/06/18 10:49:34;;;;;;;2.80;2.30;;;37.50;24.20;;;;;;20564;6837;280972;-88
2022/06/18 10:52:00;;;;;;;3.33;2.35;;;37.70;23.90;;;;;;20780;6837;121497;-88
2022/06/18 10:54:32;;;;;;;2.50;2.40;;;37.60;24.30;;;;;;20564;6837;279805;-88
2022/06/18 10:56:58;;;;;;;2.33;2.23;;;37.60;23.90;;;;;;20545;6837;308406;-88
2022/06/18 10:59:30;;;;;;;3.57;2.57;;;37.70;23.40;;;;;;20757;6837;120518;-88
2022/06/18 11:01:56;;;;;;;2.40;2.30;;;37.60;23.30;;;;;;20554;6837;306955;-88
2022/06/18 11:04:25;;;;;;;3.60;2.50;;;37.50;22.40;;;;;;20537;6837;334946;-88
2022/06/18 11:06:54;;;;;;;2.60;2.40;;;37.70;23.50;;;;;;20540;6837;307849;-88
2022/06/18 11:09:23;;;;;;;4.63;2.47;;;37.70;23.50;;;;;;20737;6837;119771;-88
2022/06/18 11:11:56;;;;;;;3.30;2.60;;;37.40;23.00;;;;;;20546;6837;278835;-88
2022/06/18 11:14:21;;;;;;;2.70;2.40;;;37.40;22.90;;;;;;20531;6837;278869;-88
2022/06/18 11:16:47;;;;;;;5.70;2.60;;;37.60;24.80;;;;;;20513;6852;310692;-88
2022/06/18 11:19:29;;;;;;;5.05;2.60;;;37.70;24.30;;;;;;20492;6852;282798;-87
2022/06/18 11:21:55;;;;;;;2.55;2.35;;;37.80;23.40;;;;;;20516;6852;281783;-88
2022/06/18 11:24:23;;;;;;;6.97;2.97;;;37.90;23.80;;;;;;20740;6852;117990;-88
2022/06/18 11:26:49;;;;;;;4.60;2.50;;;37.80;23.40;;;;;;20495;6852;279842;-88
2022/06/18 11:29:20;;;;;;;4.83;2.50;;;37.70;24.10;;;;;;20718;6852;119683;-88
2022/06/18 11:31:46;;;;;;;4.73;2.90;;;37.60;24.40;;;;;;20687;6852;118620;-87
2022/06/18 11:34:21;;;;;;;3.60;2.57;;;37.40;24.00;;;;;;20718;6852;117676;-87
2022/06/18 11:36:47;;;;;;;2.90;2.60;;;37.20;24.00;;;;;;20720;6852;118127;-88
2022/06/18 11:39:32;;;;;;;3.80;2.60;;;37.00;23.90;;;;;;20499;6852;280657;-88
2022/06/18 11:42:01;;;;;;;2.85;2.50;;;37.10;24.30;;;;;;20510;6852;307960;-87
2022/06/18 11:44:34;;;;;;;2.80;2.60;;;37.30;25.30;;;;;;20598;6852;117499;-88
2022/06/18 11:47:13;;;;;;;3.93;2.60;;;37.30;25.40;;;;;;19785;6852;309488;-87
2022/06/18 11:50:02;;;;;;;3.47;2.80;;;37.50;24.90;;;;;;20729;6851;117629;-88
2022/06/18 11:52:31;;;;;;;4.78;2.85;;;37.40;24.50;;;;;;20496;6852;336702;-88
2022/06/18 11:55:23;;;;;;;3.77;2.63;;;37.50;23.60;;;;;;20385;6852;308995;-88
2022/06/18 11:58:08;;;;;;;6.47;3.00;;;37.70;24.00;;;;;;20711;6852;117228;-88
2022/06/18 12:00:44;;;;;;;4.30;2.77;;;37.50;24.10;;;;;;20350;6852;117199;-88
2022/06/18 12:03:37;;;;;;;3.00;2.80;;;37.10;24.60;;;;;;20697;6852;121814;-88
2022/06/18 12:06:05;;;;;;;3.53;2.90;;;37.00;24.50;;;;;;20715;6852;118655;-88
2022/06/18 12:08:31;;;;;;;5.47;2.93;;;36.90;25.00;;;;;;20704;6852;117986;-88
2022/06/18 12:11:09;;;;;;;5.40;2.92;;;36.80;25.40;;;;;;20505;6852;311983;-88
2022/06/18 12:13:43;;;;;;;3.60;3.10;;;37.00;24.70;;;;;;20724;6852;119682;-88
2022/06/18 12:16:18;;;;;;;5.43;3.10;;;37.00;25.00;;;;;;20729;6852;117297;-88
2022/06/18 12:18:47;;;;;;;3.97;2.90;;;36.90;25.20;;;;;;20510;6852;281706;-88
2022/06/18 12:21:25;;;;;;;3.93;2.83;;;37.00;26.00;;;;;;20705;6852;118420;-87
2022/06/18 12:24:07;;;;;;;4.57;3.10;;;37.10;25.60;;;;;;20728;6852;117224;-88
2022/06/18 12:26:36;;;;;;;6.33;3.30;;;37.00;25.20;;;;;;20732;6852;117920;-88
2022/06/18 12:29:19;;;;;;;3.27;2.97;;;36.90;27.20;;;;;;20500;6852;308220;-88
2022/06/18 12:31:54;;;;;;;4.27;2.90;;;36.90;26.70;;;;;;19738;6852;279040;-88
2022/06/18 12:34:23;;;;;;;6.23;3.50;;;37.20;26.10;;;;;;20500;6852;308940;-87
2022/06/18 12:36:48;;;;;;;5.85;3.03;;;37.50;25.20;;;;;;20469;6862;338806;-88
2022/06/18 12:39:23;;;;;;;3.17;2.73;;;37.70;25.00;;;;;;20742;6852;116998;-88
2022/06/18 12:42:09;;;;;;;3.72;2.80;;;37.60;24.70;;;;;;20706;6849;116631;-87
2022/06/18 12:44:51;;;;;;;6.15;3.20;;;37.30;24.70;;;;;;20572;6849;336170;-88
2022/06/18 12:47:36;;;;;;;2.93;2.60;;;37.30;26.00;;;;;;20747;6849;119369;-87
2022/06/18 12:50:07;;;;;;;6.93;3.23;;;37.20;25.70;;;;;;20815;6849;67239;-88
2022/06/18 12:52:39;;;;;;;3.97;2.80;;;37.00;25.70;;;;;;20556;6867;116386;-88
2022/06/18 12:55:05;;;;;;;7.97;3.40;;;36.80;26.20;;;;;;20416;6852;282179;-87
2022/06/18 12:57:52;;;;;;;6.22;3.28;;;36.90;24.50;;;;;;20475;6852;278688;-90
2022/06/18 13:00:20;;;;;;;6.87;3.40;;;37.10;24.30;;;;;;20649;6865;117065;-88
2022/06/18 13:03:02;;;;;;;4.80;3.10;;;37.10;24.60;;;;;;20598;6866;117831;-89